createdAt,value
2022-09-12T00:00:08.193Z,8.27
2022-09-12T00:01:19.756Z,9.85
2022-09-12T00:02:21.806Z,8.75
2022-09-12T00:03:23.377Z,8.35
2022-09-12T00:04:26.857Z,8.20
2022-09-12T00:05:28.510Z,8.10
2022-09-12T00:06:35.669Z,9.05
2022-09-12T00:07:37.271Z,9.30
2022-09-12T00:08:39.364Z,9.52
2022-09-12T00:09:41.593Z,8.65
2022-09-12T00:10:44.210Z,7.93
2022-09-12T00:11:46.954Z,8.35
2022-09-12T00:12:48.835Z,9.48
2022-09-12T00:13:50.487Z,8.80
2022-09-12T00:14:52.217Z,9.60
2022-09-12T00:15:53.780Z,9.45
2022-09-12T00:16:59.342Z,9.70
2022-09-12T00:18:00.915Z,9.15
2022-09-12T00:19:04.393Z,9.93
2022-09-12T00:20:08.654Z,9.70
2022-09-12T00:21:10.235Z,9.07
2022-09-12T00:22:11.865Z,9.70
2022-09-12T00:23:14.846Z,9.13
2022-09-12T00:24:16.433Z,9.60
2022-09-12T00:25:17.982Z,9.60
2022-09-12T00:26:20.974Z,9.35
2022-09-12T00:27:22.577Z,10.48
2022-09-12T00:28:24.325Z,9.02
2022-09-12T00:29:25.962Z,9.18
2022-09-12T00:30:27.527Z,9.27
2022-09-12T00:31:29.388Z,9.48
2022-09-12T00:32:31.260Z,9.05
2022-09-12T00:33:33.155Z,9.80
2022-09-12T00:34:34.784Z,9.00
2022-09-12T00:35:45.492Z,8.75
2022-09-12T00:36:47.207Z,9.50
2022-09-12T00:37:48.875Z,8.85
2022-09-12T00:38:51.715Z,8.40
2022-09-12T00:39:53.446Z,10.23
2022-09-12T00:40:55.239Z,8.63
2022-09-12T00:41:56.895Z,10.43
2022-09-12T00:42:59.050Z,9.00
2022-09-12T00:44:04.870Z,9.55
2022-09-12T00:45:06.910Z,9.90
2022-09-12T00:46:19.418Z,8.85
2022-09-12T00:47:24.776Z,9.13
2022-09-12T00:48:35.327Z,8.48
2022-09-12T00:49:48.086Z,9.35
2022-09-12T00:50:50.328Z,9.05
2022-09-12T00:51:55.926Z,10.10
2022-09-12T00:53:06.829Z,9.75
2022-09-12T00:54:13.511Z,10.25
2022-09-12T00:55:33.789Z,10.68
2022-09-12T00:56:36.487Z,9.52
2022-09-12T00:57:44.904Z,9.05
2022-09-12T00:58:52.394Z,9.90
2022-09-12T00:59:59.423Z,10.15
2022-09-12T01:01:01.152Z,10.10
2022-09-12T01:02:03.906Z,9.00
2022-09-12T01:03:08.984Z,11.00
2022-09-12T01:04:12.801Z,10.85
2022-09-12T01:05:14.956Z,10.75
2022-09-12T01:06:27.464Z,11.15
2022-09-12T01:07:29.438Z,10.65
2022-09-12T01:08:32.919Z,12.00
2022-09-12T01:09:35.231Z,10.65
2022-09-12T01:10:38.952Z,11.10
2022-09-12T01:11:41.190Z,11.35
2022-09-12T01:12:44.120Z,11.57
2022-09-12T01:13:46.453Z,12.52
2022-09-12T01:14:48.011Z,12.00
2022-09-12T01:15:49.648Z,13.05
2022-09-12T01:16:51.697Z,12.13
2022-09-12T01:18:28.299Z,12.68
2022-09-12T01:19:46.233Z,12.15
2022-09-12T01:20:54.988Z,11.65
2022-09-12T01:22:21.036Z,12.05
2022-09-12T01:24:00.699Z,12.23
2022-09-12T01:25:26.399Z,11.52
2022-09-12T01:27:05.568Z,12.30
2022-09-12T01:28:19.288Z,11.68
2022-09-12T01:29:56.665Z,12.05
2022-09-12T01:31:13.374Z,11.10
2022-09-12T01:32:21.160Z,10.48
2022-09-12T01:33:48.773Z,11.32
2022-09-12T01:35:16.398Z,11.65
2022-09-12T01:36:37.449Z,11.57
2022-09-12T01:38:03.890Z,10.73
2022-09-12T01:39:18.506Z,11.45
2022-09-12T01:40:43.627Z,10.10
2022-09-12T01:41:55.834Z,10.82
2022-09-12T01:43:22.860Z,10.27
2022-09-12T01:44:33.706Z,9.93
2022-09-12T01:45:47.211Z,10.70
2022-09-12T01:46:59.700Z,10.57
2022-09-12T01:48:14.117Z,10.55
2022-09-12T01:49:37.551Z,9.93
2022-09-12T01:51:11.877Z,9.73
2022-09-12T01:52:35.000Z,10.18
2022-09-12T01:53:46.646Z,10.68
2022-09-12T01:54:54.662Z,9.85
2022-09-12T01:56:14.265Z,9.52
2022-09-12T01:57:43.729Z,10.10
2022-09-12T01:58:48.747Z,9.45
2022-09-12T01:59:55.436Z,10.13
2022-09-12T02:01:16.848Z,10.30
2022-09-12T02:02:26.744Z,9.20
2022-09-12T02:03:33.648Z,9.88
2022-09-12T02:04:52.625Z,9.48
2022-09-12T02:06:04.419Z,9.98
2022-09-12T02:07:14.798Z,8.80
2022-09-12T02:08:24.288Z,10.20
2022-09-12T02:09:49.318Z,10.27
2022-09-12T02:10:57.606Z,8.95
2022-09-12T02:12:01.365Z,9.32
2022-09-12T02:13:21.802Z,10.05
2022-09-12T02:14:30.920Z,10.13
2022-09-12T02:15:43.185Z,9.43
2022-09-12T02:16:59.296Z,8.82
2022-09-12T02:18:04.545Z,9.90
2022-09-12T02:19:13.076Z,10.40
2022-09-12T02:20:44.326Z,9.70
2022-09-12T02:21:57.917Z,9.88
2022-09-12T02:23:01.050Z,9.38
2022-09-12T02:24:04.800Z,9.55
2022-09-12T02:25:09.092Z,9.27
2022-09-12T02:26:20.354Z,9.00
2022-09-12T02:27:26.133Z,8.57
2022-09-12T02:28:42.121Z,9.30
2022-09-12T02:29:45.042Z,9.30
2022-09-12T02:31:19.657Z,9.65
2022-09-12T02:32:32.648Z,9.45
2022-09-12T02:34:01.961Z,8.60
2022-09-12T02:35:11.024Z,8.88
2022-09-12T02:36:31.301Z,7.85
2022-09-12T02:37:56.000Z,7.55
2022-09-12T02:38:57.698Z,7.35
2022-09-12T02:40:00.763Z,6.90
2022-09-12T02:41:02.450Z,7.00
2022-09-12T02:42:04.564Z,6.60
2022-09-12T02:43:06.879Z,6.35
2022-09-12T02:44:08.498Z,4.72
2022-09-12T02:45:12.403Z,5.30
2022-09-12T02:46:26.685Z,4.43
2022-09-12T02:47:39.452Z,5.00
2022-09-12T02:48:43.451Z,5.00
2022-09-12T02:49:45.726Z,4.53
2022-09-12T02:50:47.584Z,4.40
2022-09-12T02:51:49.948Z,4.35
2022-09-12T02:52:54.649Z,4.88
2022-09-12T02:53:56.997Z,4.88
2022-09-12T02:54:59.413Z,5.88
2022-09-12T02:56:01.299Z,7.00
2022-09-12T02:57:02.965Z,6.55
2022-09-12T02:58:07.875Z,7.38
2022-09-12T02:59:14.645Z,6.13
2022-09-12T03:00:16.372Z,6.53
2022-09-12T03:01:50.603Z,5.90
2022-09-12T03:02:57.588Z,5.47
2022-09-12T03:04:02.575Z,5.97
2022-09-12T03:05:10.246Z,5.45
2022-09-12T03:06:39.181Z,5.60
2022-09-12T03:07:59.647Z,5.25
2022-09-12T03:09:20.735Z,5.25
2022-09-12T03:10:22.720Z,6.60
2022-09-12T03:11:30.947Z,5.95
2022-09-12T03:12:38.102Z,5.55
2022-09-12T03:13:46.795Z,5.60
2022-09-12T03:14:54.383Z,6.00
2022-09-12T03:16:37.157Z,5.75
2022-09-12T03:17:53.987Z,6.00
2022-09-12T03:19:00.864Z,6.38
2022-09-12T03:20:14.493Z,6.38
2022-09-12T03:21:33.431Z,6.30
2022-09-12T03:23:02.832Z,5.82
2022-09-12T03:24:15.999Z,5.60
2022-09-12T03:25:29.915Z,5.78
2022-09-12T03:26:52.801Z,7.13
2022-09-12T03:28:59.162Z,6.55
2022-09-12T03:30:01.693Z,6.15
2022-09-12T03:31:15.649Z,7.13
2022-09-12T03:32:17.204Z,5.72
2022-09-12T03:33:21.720Z,4.97
2022-09-12T03:34:25.848Z,4.45
2022-09-12T03:35:27.434Z,4.38
2022-09-12T03:36:30.559Z,5.10
2022-09-12T03:37:32.119Z,5.22
2022-09-12T03:38:33.677Z,5.00
2022-09-12T03:39:35.282Z,5.72
2022-09-12T03:40:38.268Z,4.88
2022-09-12T03:41:40.020Z,5.90
2022-09-12T03:42:42.300Z,5.18
2022-09-12T03:43:44.232Z,5.82
2022-09-12T03:44:45.777Z,5.68
2022-09-12T03:45:51.999Z,6.03
2022-09-12T03:46:53.619Z,6.38
2022-09-12T03:47:55.216Z,6.28
2022-09-12T03:48:56.857Z,6.22
2022-09-12T03:49:58.450Z,6.20
2022-09-12T03:51:05.139Z,6.20
2022-09-12T03:52:06.689Z,6.18
2022-09-12T03:53:08.353Z,6.05
2022-09-12T03:54:11.060Z,5.82
2022-09-12T03:55:12.624Z,6.20
2022-09-12T03:56:14.437Z,6.15
2022-09-12T03:57:16.059Z,6.15
2022-09-12T03:58:17.634Z,6.38
2022-09-12T03:59:19.232Z,7.05
2022-09-12T04:00:21.525Z,7.60
2022-09-12T04:01:24.076Z,7.90
2022-09-12T04:02:25.760Z,8.43
2022-09-12T04:03:27.381Z,9.00
2022-09-12T04:04:28.933Z,8.27
2022-09-12T04:05:30.549Z,8.15
2022-09-12T04:06:32.188Z,9.32
2022-09-12T04:07:33.762Z,8.98
2022-09-12T04:08:36.648Z,8.88
2022-09-12T04:09:38.345Z,8.05
2022-09-12T04:10:40.254Z,8.05
2022-09-12T04:11:42.024Z,8.20
2022-09-12T04:12:44.107Z,8.50
2022-09-12T04:13:46.461Z,7.95
2022-09-12T04:14:48.297Z,8.00
2022-09-12T04:15:57.216Z,8.70
2022-09-12T04:16:58.944Z,7.75
2022-09-12T04:18:05.057Z,9.35
2022-09-12T04:19:07.447Z,9.02
2022-09-12T04:20:09.280Z,9.35
2022-09-12T04:21:16.421Z,9.10
2022-09-12T04:22:18.000Z,9.52
2022-09-12T04:23:19.925Z,10.90
2022-09-12T04:24:21.549Z,10.05
2022-09-12T04:25:24.027Z,8.40
2022-09-12T04:26:25.588Z,9.43
2022-09-12T04:27:27.600Z,10.20
2022-09-12T04:28:29.944Z,9.98
2022-09-12T04:29:31.539Z,10.77
2022-09-12T04:30:34.531Z,11.45
2022-09-12T04:31:36.152Z,10.27
2022-09-12T04:32:37.828Z,10.63
2022-09-12T04:33:39.832Z,10.90
2022-09-12T04:34:41.721Z,11.65
2022-09-12T04:35:43.479Z,10.13
2022-09-12T04:36:45.036Z,9.98
2022-09-12T04:37:46.634Z,10.57
2022-09-12T04:38:48.273Z,9.80
2022-09-12T04:39:50.219Z,9.60
2022-09-12T04:40:51.784Z,9.30
2022-09-12T04:41:53.360Z,9.23
2022-09-12T04:42:56.013Z,10.68
2022-09-12T04:44:03.085Z,9.30
2022-09-12T04:45:06.204Z,8.98
2022-09-12T04:46:09.103Z,10.65
2022-09-12T04:47:10.707Z,10.75
2022-09-12T04:48:12.718Z,9.98
2022-09-12T04:49:16.242Z,11.20
2022-09-12T04:50:18.558Z,10.48
2022-09-12T04:51:23.488Z,12.23
2022-09-12T04:52:25.093Z,11.80
2022-09-12T04:53:26.697Z,11.55
2022-09-12T04:54:28.279Z,11.35
2022-09-12T04:55:29.987Z,11.05
2022-09-12T04:56:31.921Z,11.32
2022-09-12T04:57:33.639Z,11.25
2022-09-12T04:58:35.991Z,12.00
2022-09-12T04:59:38.723Z,11.55
2022-09-12T05:00:40.293Z,12.48
2022-09-12T05:01:42.419Z,12.82
2022-09-12T05:02:44.417Z,10.98
2022-09-12T05:03:47.509Z,11.20
2022-09-12T05:04:49.066Z,11.43
2022-09-12T05:05:53.340Z,12.57
2022-09-12T05:06:58.660Z,11.57
2022-09-12T05:08:00.191Z,11.60
2022-09-12T05:09:02.811Z,12.60
2022-09-12T05:10:04.668Z,12.70
2022-09-12T05:11:08.440Z,12.27
2022-09-12T05:12:10.029Z,12.50
2022-09-12T05:13:11.569Z,12.18
2022-09-12T05:14:13.422Z,11.70
2022-09-12T05:15:15.068Z,11.88
2022-09-12T05:16:18.106Z,12.25
2022-09-12T05:17:19.831Z,11.75
2022-09-12T05:18:21.411Z,11.27
2022-09-12T05:19:23.651Z,11.70
2022-09-12T05:20:25.236Z,12.45
2022-09-12T05:21:27.300Z,12.50
2022-09-12T05:22:28.854Z,13.85
2022-09-12T05:23:31.212Z,13.95
2022-09-12T05:24:32.901Z,13.15
2022-09-12T05:25:34.470Z,12.63
2022-09-12T05:26:36.035Z,13.05
2022-09-12T05:27:37.605Z,13.05
2022-09-12T05:28:39.540Z,12.82
2022-09-12T05:29:41.302Z,12.25
2022-09-12T05:30:42.895Z,12.65
2022-09-12T05:31:44.567Z,12.38
2022-09-12T05:32:46.110Z,12.82
2022-09-12T05:33:49.884Z,12.50
2022-09-12T05:34:51.549Z,13.00
2022-09-12T05:35:53.136Z,12.40
2022-09-12T05:36:54.704Z,12.18
2022-09-12T05:37:56.259Z,13.75
2022-09-12T05:38:59.994Z,13.30
2022-09-12T05:40:05.337Z,13.02
2022-09-12T05:41:12.398Z,12.73
2022-09-12T05:42:17.776Z,12.40
2022-09-12T05:43:20.403Z,12.65
2022-09-12T05:44:21.956Z,12.07
2022-09-12T05:45:23.636Z,12.80
2022-09-12T05:46:28.261Z,11.93
2022-09-12T05:47:29.793Z,11.50
2022-09-12T05:48:31.467Z,13.68
2022-09-12T05:49:34.940Z,13.00
2022-09-12T05:50:36.557Z,13.50
2022-09-12T05:51:41.523Z,13.43
2022-09-12T05:52:43.097Z,13.02
2022-09-12T05:53:45.855Z,13.05
2022-09-12T05:54:48.419Z,14.07
2022-09-12T05:55:50.223Z,14.55
2022-09-12T05:56:51.848Z,13.85
2022-09-12T05:57:54.023Z,12.18
2022-09-12T05:58:59.137Z,12.52
2022-09-12T06:00:01.155Z,12.27
2022-09-12T06:01:07.317Z,12.10
2022-09-12T06:02:10.961Z,13.02
2022-09-12T06:03:12.767Z,14.00
2022-09-12T06:04:14.335Z,12.40
2022-09-12T06:05:15.898Z,13.38
2022-09-12T06:06:19.488Z,13.60
2022-09-12T06:07:21.032Z,12.85
2022-09-12T06:08:22.628Z,12.85
2022-09-12T06:09:25.626Z,12.50
2022-09-12T06:10:27.212Z,12.30
2022-09-12T06:11:31.764Z,13.90
2022-09-12T06:12:33.302Z,12.88
2022-09-12T06:13:37.112Z,13.07
2022-09-12T06:14:38.823Z,13.27
2022-09-12T06:15:40.425Z,16.05
2022-09-12T06:16:42.319Z,14.80
2022-09-12T06:17:46.414Z,14.50
2022-09-12T06:18:56.151Z,13.90
2022-09-12T06:19:57.721Z,15.85
2022-09-12T06:21:07.358Z,14.50
2022-09-12T06:22:09.120Z,15.15
2022-09-12T06:23:10.656Z,16.05
2022-09-12T06:24:12.243Z,15.05
2022-09-12T06:25:14.354Z,14.95
2022-09-12T06:26:17.866Z,15.52
2022-09-12T06:27:19.489Z,15.25
2022-09-12T06:28:21.161Z,14.98
2022-09-12T06:29:22.839Z,15.23
2022-09-12T06:30:25.558Z,14.55
2022-09-12T06:31:30.499Z,15.82
2022-09-12T06:32:32.172Z,13.70
2022-09-12T06:33:34.711Z,12.70
2022-09-12T06:34:36.468Z,12.35
2022-09-12T06:35:38.812Z,10.05
2022-09-12T06:36:42.888Z,10.80
2022-09-12T06:37:45.672Z,11.00
2022-09-12T06:38:48.747Z,11.15
2022-09-12T06:39:50.535Z,11.82
2022-09-12T06:40:52.126Z,11.65
2022-09-12T06:41:54.228Z,11.50
2022-09-12T06:42:55.842Z,10.68
2022-09-12T06:43:58.123Z,11.70
2022-09-12T06:45:00.134Z,11.30
2022-09-12T06:46:02.401Z,11.98
2022-09-12T06:47:04.187Z,11.18
2022-09-12T06:48:05.863Z,11.77
2022-09-12T06:49:08.080Z,11.90
2022-09-12T06:50:09.882Z,10.35
2022-09-12T06:51:13.536Z,10.90
2022-09-12T06:52:15.076Z,10.70
2022-09-12T06:53:16.719Z,11.63
2022-09-12T06:54:19.935Z,11.40
2022-09-12T06:55:27.622Z,11.00
2022-09-12T06:56:29.611Z,10.43
2022-09-12T06:57:32.522Z,10.65
2022-09-12T06:58:35.029Z,10.68
2022-09-12T06:59:36.641Z,10.75
2022-09-12T07:00:39.583Z,11.77
2022-09-12T07:01:41.742Z,11.77
2022-09-12T07:02:43.733Z,12.10
2022-09-12T07:04:00.140Z,10.77
2022-09-12T07:05:01.737Z,10.48
2022-09-12T07:06:09.111Z,11.60
2022-09-12T07:07:11.217Z,11.23
2022-09-12T07:08:12.955Z,11.55
2022-09-12T07:09:18.208Z,10.80
2022-09-12T07:10:22.436Z,12.18
2022-09-12T07:11:26.356Z,12.18
2022-09-12T07:12:29.491Z,11.63
2022-09-12T07:13:31.041Z,10.52
2022-09-12T07:14:32.621Z,10.77
2022-09-12T07:15:35.081Z,13.07
2022-09-12T07:16:37.070Z,13.60
2022-09-12T07:17:38.719Z,13.57
2022-09-12T07:18:40.648Z,14.10
2022-09-12T07:19:42.238Z,13.85
2022-09-12T07:20:44.089Z,13.25
2022-09-12T07:21:45.653Z,12.40
2022-09-12T07:22:47.209Z,14.00
2022-09-12T07:23:49.241Z,13.73
2022-09-12T07:24:50.987Z,12.68
2022-09-12T07:25:54.399Z,12.75
2022-09-12T07:26:56.098Z,13.43
2022-09-12T07:27:57.637Z,13.23
2022-09-12T07:29:18.624Z,13.10
2022-09-12T07:30:22.304Z,12.68
2022-09-12T07:31:26.168Z,13.57
2022-09-12T07:32:27.709Z,11.82
2022-09-12T07:33:29.801Z,12.77
2022-09-12T07:34:31.883Z,13.15
2022-09-12T07:35:34.158Z,11.85
2022-09-12T07:36:36.073Z,12.75
2022-09-12T07:37:37.633Z,13.35
2022-09-12T07:38:39.815Z,12.52
2022-09-12T07:39:41.472Z,12.80
2022-09-12T07:40:43.898Z,11.90
2022-09-12T07:41:45.486Z,13.00
2022-09-12T07:42:47.754Z,13.73
2022-09-12T07:43:53.342Z,11.85
2022-09-12T07:44:54.885Z,12.90
2022-09-12T07:45:57.363Z,12.88
2022-09-12T07:46:58.969Z,12.90
2022-09-12T07:48:00.923Z,12.52
2022-09-12T07:49:02.861Z,11.90
2022-09-12T07:50:04.728Z,13.13
2022-09-12T07:51:08.935Z,12.38
2022-09-12T07:52:10.542Z,13.90
2022-09-12T07:53:12.137Z,13.73
2022-09-12T07:54:13.706Z,13.90
2022-09-12T07:55:15.287Z,13.10
2022-09-12T07:56:17.974Z,13.25
2022-09-12T07:57:19.595Z,14.05
2022-09-12T07:58:21.273Z,13.38
2022-09-12T07:59:48.512Z,12.52
2022-09-12T08:00:45.885Z,14.73
2022-09-12T08:01:47.664Z,13.50
2022-09-12T08:02:53.274Z,12.95
2022-09-12T08:03:59.832Z,13.93
2022-09-12T08:05:02.271Z,14.27
2022-09-12T08:06:12.539Z,13.20
2022-09-12T08:07:14.229Z,13.75
2022-09-12T08:08:15.775Z,13.10
2022-09-12T08:09:17.513Z,13.77
2022-09-12T08:10:19.065Z,13.77
2022-09-12T08:11:22.220Z,13.40
2022-09-12T08:12:23.970Z,13.10
2022-09-12T08:13:26.930Z,13.40
2022-09-12T08:14:28.717Z,13.18
2022-09-12T08:15:31.416Z,13.10
2022-09-12T08:16:35.631Z,13.85
2022-09-12T08:17:37.577Z,13.63
2022-09-12T08:18:40.793Z,14.77
2022-09-12T08:19:42.643Z,14.35
2022-09-12T08:20:44.672Z,13.35
2022-09-12T08:21:46.226Z,13.88
2022-09-12T08:22:48.004Z,13.05
2022-09-12T08:23:55.358Z,16.38
2022-09-12T08:24:56.969Z,16.33
2022-09-12T08:26:05.314Z,15.60
2022-09-12T08:27:08.174Z,13.40
2022-09-12T08:28:09.989Z,13.70
2022-09-12T08:29:12.117Z,12.68
2022-09-12T08:30:14.155Z,12.60
2022-09-12T08:31:18.127Z,12.30
2022-09-12T08:32:19.683Z,12.20
2022-09-12T08:33:22.146Z,12.17
2022-09-12T08:34:24.782Z,11.73
2022-09-12T08:35:26.328Z,10.93
2022-09-12T08:36:29.533Z,11.43
2022-09-12T08:37:31.738Z,11.00
2022-09-12T08:38:34.904Z,10.90
2022-09-12T08:39:36.484Z,9.70
2022-09-12T08:40:53.166Z,8.80
2022-09-12T08:42:03.063Z,8.87
2022-09-12T08:43:29.001Z,8.87
2022-09-12T08:44:45.394Z,8.80
2022-09-12T08:45:58.317Z,8.90
2022-09-12T08:47:36.399Z,9.60
2022-09-12T08:48:38.716Z,10.10
2022-09-12T08:49:40.237Z,8.67
2022-09-12T08:50:49.198Z,8.90
2022-09-12T08:51:52.271Z,8.33
2022-09-12T08:53:03.294Z,9.20
2022-09-12T08:54:19.964Z,8.47
2022-09-12T08:55:31.185Z,8.40
2022-09-12T08:56:36.836Z,8.83
2022-09-12T08:57:38.708Z,8.60
2022-09-12T08:58:43.213Z,8.07
2022-09-12T08:59:46.296Z,8.50
2022-09-12T09:01:04.871Z,8.30
2022-09-12T09:02:22.889Z,8.93
2022-09-12T09:03:48.235Z,8.40
2022-09-12T09:05:16.306Z,7.83
2022-09-12T09:06:45.941Z,7.87
2022-09-12T09:07:59.274Z,7.97
2022-09-12T09:09:21.966Z,8.87
2022-09-12T09:10:45.293Z,8.73
2022-09-12T09:11:57.690Z,9.13
2022-09-12T09:13:07.809Z,8.37
2022-09-12T09:14:50.163Z,9.33
2022-09-12T09:16:21.468Z,7.90
2022-09-12T09:17:43.275Z,7.83
2022-09-12T09:18:48.362Z,7.27
2022-09-12T09:19:56.841Z,7.80
2022-09-12T09:21:09.269Z,8.40
2022-09-12T09:22:42.521Z,8.60
2022-09-12T09:23:48.221Z,7.90
2022-09-12T09:24:54.190Z,7.80
2022-09-12T09:26:01.708Z,7.40
2022-09-12T09:27:36.854Z,8.30
2022-09-12T09:28:44.851Z,7.23
2022-09-12T09:29:50.617Z,7.40
2022-09-12T09:30:52.708Z,7.90
2022-09-12T09:31:57.799Z,7.90
2022-09-12T09:33:01.902Z,8.70
2022-09-12T09:34:13.591Z,8.03
2022-09-12T09:35:32.143Z,7.97
2022-09-12T09:37:01.597Z,8.50
2022-09-12T09:38:22.297Z,8.40
2022-09-12T09:39:48.929Z,8.27
2022-09-12T09:41:14.650Z,7.53
2022-09-12T09:42:34.931Z,7.20
2022-09-12T09:43:38.507Z,7.30
2022-09-12T09:44:40.379Z,7.43
2022-09-12T09:45:44.606Z,7.37
2022-09-12T09:46:53.952Z,8.50
2022-09-12T09:48:06.100Z,8.60
2022-09-12T09:49:12.889Z,8.23
2022-09-12T09:50:16.755Z,7.80
2022-09-12T09:51:24.801Z,8.30
2022-09-12T09:52:30.552Z,8.60
2022-09-12T09:53:35.637Z,8.70
2022-09-12T09:54:51.973Z,8.27
2022-09-12T09:55:56.726Z,7.93
2022-09-12T09:56:58.279Z,9.43
2022-09-12T09:58:00.378Z,7.47
2022-09-12T09:59:28.778Z,9.07
2022-09-12T10:00:36.309Z,7.60
2022-09-12T10:01:49.414Z,6.90
2022-09-12T10:03:03.026Z,7.13
2022-09-12T10:04:04.764Z,7.27
2022-09-12T10:05:06.755Z,7.60
2022-09-12T10:06:25.321Z,6.37
2022-09-12T10:07:27.305Z,5.20
2022-09-12T10:08:37.060Z,5.77
2022-09-12T10:09:38.645Z,6.00
2022-09-12T10:11:04.332Z,6.33
2022-09-12T10:12:21.850Z,6.33
2022-09-12T10:13:54.648Z,5.30
2022-09-12T10:15:14.028Z,5.80
2022-09-12T10:16:34.522Z,5.67
2022-09-12T10:17:43.736Z,5.63
2022-09-12T10:18:45.666Z,6.17
2022-09-12T10:19:55.959Z,5.67
2022-09-12T10:21:16.639Z,5.20
2022-09-12T10:22:20.385Z,5.40
2022-09-12T10:23:37.011Z,5.37
2022-09-12T10:24:46.573Z,4.50
2022-09-12T10:25:53.692Z,5.03
2022-09-12T10:27:13.342Z,5.10
2022-09-12T10:28:27.020Z,5.10
2022-09-12T10:29:32.215Z,5.03
2022-09-12T10:30:34.167Z,5.00
2022-09-12T10:31:44.955Z,4.90
2022-09-12T10:32:54.067Z,4.90
2022-09-12T10:33:59.558Z,5.40
2022-09-12T10:35:04.337Z,4.73
2022-09-12T10:36:06.453Z,4.73
2022-09-12T10:37:23.306Z,5.30
2022-09-12T10:38:32.185Z,4.57
2022-09-12T10:39:35.938Z,4.57
2022-09-12T10:40:43.673Z,4.63
2022-09-12T10:41:46.596Z,4.43
2022-09-12T10:42:53.870Z,4.60
2022-09-12T10:44:14.563Z,4.33
2022-09-12T10:45:32.808Z,4.53
2022-09-12T10:46:34.441Z,4.20
2022-09-12T10:47:37.892Z,3.90
2022-09-12T10:48:39.475Z,4.70
2022-09-12T10:49:41.027Z,4.27
2022-09-12T10:50:43.175Z,4.13
2022-09-12T10:51:44.748Z,4.10
2022-09-12T10:52:46.436Z,3.90
2022-09-12T10:53:48.119Z,4.10
2022-09-12T10:54:51.264Z,4.50
2022-09-12T10:56:09.156Z,4.40
2022-09-12T10:57:29.308Z,4.10
2022-09-12T10:58:58.333Z,3.90
2022-09-12T11:00:14.621Z,3.50
2022-09-12T11:01:28.427Z,3.50
2022-09-12T11:02:50.632Z,3.97
2022-09-12T11:04:16.377Z,4.20
2022-09-12T11:05:51.564Z,4.60
2022-09-12T11:07:17.343Z,3.90
2022-09-12T11:08:41.640Z,4.17
2022-09-12T11:09:57.200Z,3.60
2022-09-12T11:11:42.802Z,3.53
2022-09-12T11:13:08.590Z,3.43
2022-09-12T11:14:36.796Z,3.30
2022-09-12T11:15:59.481Z,3.80
2022-09-12T11:17:13.402Z,4.80
2022-09-12T11:18:35.760Z,4.23
2022-09-12T11:19:53.221Z,3.60
2022-09-12T11:21:09.693Z,3.37
2022-09-12T11:22:32.002Z,3.17
2022-09-12T11:23:59.288Z,3.30
2022-09-12T11:25:23.568Z,3.00
2022-09-12T11:26:33.012Z,2.30
2022-09-12T11:28:25.420Z,2.40
2022-09-12T11:29:57.333Z,2.60
2022-09-12T11:31:23.774Z,2.80
2022-09-12T11:32:54.309Z,2.70
2022-09-12T11:33:59.927Z,2.57
2022-09-12T11:35:27.352Z,2.63
2022-09-12T11:36:40.992Z,2.30
2022-09-12T11:38:00.702Z,2.47
2022-09-12T11:39:13.334Z,2.40
2022-09-12T11:40:46.449Z,2.77
2022-09-12T11:41:52.226Z,2.10
2022-09-12T11:42:59.338Z,2.50
2022-09-12T11:44:15.618Z,2.20
2022-09-12T11:45:23.650Z,2.60
2022-09-12T11:46:36.616Z,2.20
2022-09-12T11:47:40.863Z,2.40
2022-09-12T11:48:55.808Z,2.77
2022-09-12T11:50:00.139Z,2.40
2022-09-12T11:51:04.944Z,2.27
2022-09-12T11:52:34.098Z,1.97
2022-09-12T11:53:40.943Z,2.07
2022-09-12T11:54:53.313Z,2.20
2022-09-12T11:56:02.015Z,2.50
2022-09-12T11:57:26.359Z,2.10
2022-09-12T11:58:29.460Z,2.27
2022-09-12T11:59:53.980Z,2.40
2022-09-12T12:01:03.054Z,2.50
2022-09-12T12:02:12.661Z,2.67
2022-09-12T12:03:40.834Z,2.53
2022-09-12T12:05:03.385Z,1.87
2022-09-12T12:06:21.484Z,2.20
2022-09-12T12:07:23.063Z,1.80
2022-09-12T12:08:26.563Z,2.50
2022-09-12T12:09:28.196Z,2.23
2022-09-12T12:10:40.080Z,1.80
2022-09-12T12:11:50.837Z,2.40
2022-09-12T12:12:55.409Z,2.37
2022-09-12T12:14:01.905Z,2.37
2022-09-12T12:15:03.748Z,2.00
2022-09-12T12:16:26.393Z,2.27
2022-09-12T12:17:29.783Z,2.23
2022-09-12T12:18:35.611Z,2.10
2022-09-12T12:19:37.978Z,2.30
2022-09-12T12:20:39.755Z,2.10
2022-09-12T12:21:52.089Z,2.40
2022-09-12T12:22:54.760Z,2.20
2022-09-12T12:24:05.183Z,2.10
2022-09-12T12:25:12.507Z,1.73
2022-09-12T12:26:40.072Z,2.13
2022-09-12T12:27:44.946Z,1.70
2022-09-12T12:28:50.569Z,1.87
2022-09-12T12:29:52.245Z,1.60
2022-09-12T12:30:53.849Z,1.80
2022-09-12T12:32:04.572Z,1.90
2022-09-12T12:33:10.185Z,1.47
2022-09-12T12:34:27.632Z,1.50
2022-09-12T12:35:41.470Z,2.10
2022-09-12T12:36:43.247Z,1.47
2022-09-12T12:37:51.155Z,1.50
2022-09-12T12:38:52.717Z,1.73
2022-09-12T12:40:01.312Z,1.67
2022-09-12T12:41:18.346Z,1.83
2022-09-12T12:42:35.066Z,2.00
2022-09-12T12:43:36.618Z,1.77
2022-09-12T12:44:44.195Z,1.90
2022-09-12T12:45:48.091Z,1.67
2022-09-12T12:47:15.040Z,1.50
2022-09-12T12:48:18.719Z,1.70
2022-09-12T12:49:27.808Z,1.57
2022-09-12T12:50:30.518Z,1.60
2022-09-12T12:51:53.277Z,1.73
2022-09-12T12:53:01.132Z,1.50
2022-09-12T12:54:31.719Z,1.80
2022-09-12T12:55:47.087Z,1.30
2022-09-12T12:56:48.721Z,1.50
2022-09-12T12:57:52.447Z,1.57
2022-09-12T12:59:19.435Z,1.77
2022-09-12T13:00:20.954Z,1.93
2022-09-12T13:01:23.495Z,1.60
2022-09-12T13:02:51.757Z,1.70
2022-09-12T13:04:02.005Z,1.90
2022-09-12T13:05:15.781Z,1.50
2022-09-12T13:06:36.146Z,1.80
2022-09-12T13:07:40.151Z,1.63
2022-09-12T13:08:55.196Z,3.70
2022-09-12T13:09:59.426Z,1.50
2022-09-12T13:11:11.115Z,1.33
2022-09-12T13:12:23.876Z,1.90
2022-09-12T13:13:37.439Z,1.40
2022-09-12T13:14:53.293Z,1.47
2022-09-12T13:15:54.944Z,1.23
2022-09-12T13:17:00.558Z,1.93
2022-09-12T13:18:14.467Z,1.57
2022-09-12T13:19:22.117Z,1.40
2022-09-12T13:20:30.406Z,1.80
2022-09-12T13:21:32.164Z,1.20
2022-09-12T13:22:43.222Z,1.47
2022-09-12T13:23:45.549Z,1.50
2022-09-12T13:24:49.119Z,1.60
2022-09-12T13:25:56.256Z,2.50
2022-09-12T13:26:58.308Z,2.50
2022-09-12T13:28:20.309Z,1.70
2022-09-12T13:29:26.647Z,1.90
2022-09-12T13:30:31.452Z,1.67
2022-09-12T13:31:33.075Z,1.57
2022-09-12T13:32:35.981Z,1.60
2022-09-12T13:33:42.209Z,2.00
2022-09-12T13:34:52.396Z,1.70
2022-09-12T13:36:03.178Z,2.07
2022-09-12T13:37:49.732Z,1.67
2022-09-12T13:39:16.829Z,1.60
2022-09-12T13:40:41.046Z,1.80
2022-09-12T13:42:11.933Z,1.60
2022-09-12T13:43:16.347Z,1.93
2022-09-12T13:44:21.847Z,1.70
2022-09-12T13:45:26.996Z,1.67
2022-09-12T13:46:32.828Z,1.37
2022-09-12T13:47:42.260Z,1.30
2022-09-12T13:48:44.565Z,1.63
2022-09-12T13:49:46.950Z,1.40
2022-09-12T13:51:03.849Z,1.50
2022-09-12T13:52:15.165Z,1.10
2022-09-12T13:53:19.800Z,1.57
2022-09-12T13:54:24.450Z,1.50
2022-09-12T13:55:35.049Z,1.60
2022-09-12T13:56:48.533Z,1.80
2022-09-12T13:57:57.065Z,1.67
2022-09-12T13:59:00.821Z,1.83
2022-09-12T14:00:19.254Z,1.67
2022-09-12T14:01:21.391Z,1.73
2022-09-12T14:02:25.068Z,1.73
2022-09-12T14:03:50.845Z,1.60
2022-09-12T14:05:11.872Z,1.30
2022-09-12T14:06:15.978Z,1.37
2022-09-12T14:07:20.233Z,1.40
2022-09-12T14:08:23.777Z,1.50
2022-09-12T14:09:29.758Z,1.60
2022-09-12T14:10:32.987Z,1.10
2022-09-12T14:11:37.833Z,1.20
2022-09-12T14:12:43.522Z,1.30
2022-09-12T14:13:45.995Z,1.13
2022-09-12T14:14:50.033Z,1.20
2022-09-12T14:15:54.570Z,1.20
2022-09-12T14:16:56.284Z,1.60
2022-09-12T14:18:03.264Z,2.13
2022-09-12T14:19:05.307Z,1.60
2022-09-12T14:20:12.506Z,1.50
2022-09-12T14:21:30.432Z,1.40
2022-09-12T14:22:34.292Z,1.40
2022-09-12T14:23:44.939Z,1.40
2022-09-12T14:24:51.511Z,1.17
2022-09-12T14:25:54.421Z,1.17
2022-09-12T14:26:56.829Z,1.30
2022-09-12T14:27:59.040Z,1.20
2022-09-12T14:29:01.784Z,1.30
2022-09-12T14:30:22.616Z,1.40
2022-09-12T14:31:32.712Z,1.90
2022-09-12T14:32:34.960Z,1.53
2022-09-12T14:33:51.430Z,1.70
2022-09-12T14:35:11.048Z,1.73
2022-09-12T14:36:23.783Z,1.30
2022-09-12T14:37:25.343Z,1.30
2022-09-12T14:38:36.643Z,1.90
2022-09-12T14:39:44.010Z,1.60
2022-09-12T14:40:48.734Z,1.47
2022-09-12T14:42:00.023Z,1.40
2022-09-12T14:43:01.680Z,1.53
2022-09-12T14:44:07.709Z,1.47
2022-09-12T14:45:27.305Z,1.50
2022-09-12T14:46:34.627Z,1.63
2022-09-12T14:47:41.911Z,1.57
2022-09-12T14:48:48.707Z,1.40
2022-09-12T14:49:53.762Z,1.50
2022-09-12T14:50:55.719Z,1.70
2022-09-12T14:52:00.021Z,1.60
2022-09-12T14:53:23.787Z,1.80
2022-09-12T14:54:28.167Z,2.00